Accueil
Images satellite Prévisions 15 joursClimatMétéo marine Cyclones Foudre AéroportsFAQ Actualités A propos
Météo : Europe Afrique Amérique du Nord Amérique du Sud Asie Australie-Océanie Autres
Langues Contact

Asunción, Paraguay

Aeropuerto Internacional Silvio Pettirossi (Luque)

latitude: 25-16S, longitude: 057-38W, altitude: 101 m


METAR: SGAS 211900Z 14006KT 080V180 CAVOK 34/03 Q1014
TAF: SGAS 211530Z 2118/2218 14007KT CAVOK TX34/2119Z TN20/2210Z BECMG 2209/2212 08007KT

Heure: 16:54 (19:54 UTC)

Observation

Le bulletin a été fait il y a 54 minutes, à 19:00 UTC
Vent 06 kt de sud-est, variant entre est et sud
Température 34°C
Humidité 14%
Pression 1014 hPa
Visibilité 10 km ou plus
pas de nuages en-dessous de 1500 mètres et pas de cumulonimbus.

Changer d'unités

Prévision

Le bulletin a été fait il y a 04 heures et 24 minutes, à 15:30 UTC
Prévision valable du 21 à 18 UTC au 22 à 18 UTC
Vent 07 kt de sud-est
Visibilité 10 km ou plus
pas de nuages en-dessous de 1500 mètres et pas de cumulonimbus.
Evoluant progressivement
du 22 à 09 UTC au 22 à 12 UTC
Vent 07 kt de est
Les informations qui figurent sur ce site font l'objet d'une clause de non-responsabilité
Météo : Europe Afrique Amérique du Nord Amérique du Sud Asie Australie-Océanie Autres
Images satellite Prévisions 15 joursClimatMétéo marine Cyclones Foudre AéroportsFAQ Langues Contact Actualités A propos